Time;durP1;ratioP1;P1;durP2;ratioP2;P2;SDS_P1;SDS_P2;PMS_P1;PMS_P2;Temp;Humidity;BMP_temperature;BMP_pressure;BME280_temperature;BME280_humidity;BME280_pressure;Samples;Min_cycle;Max_cycle;Signal;HPM_P1;HPM_P2
2022/06/28 00:01:51;;;;;;;3.85;3.00;;;;;;;19.11;81.87;98424.03;1817525;79;21182;-58
2022/06/28 00:04:19;;;;;;;6.90;3.45;;;;;;;19.10;81.91;98417.59;1817468;79;20874;-58
2022/06/28 00:06:46;;;;;;;3.00;2.70;;;;;;;19.06;82.00;98421.53;1817502;79;20842;-60
2022/06/28 00:09:14;;;;;;;3.47;3.15;;;;;;;19.01;82.08;98425.80;1817496;79;20969;-59
2022/06/28 00:11:41;;;;;;;4.10;2.87;;;;;;;18.95;82.23;98420.38;1817942;79;21472;-60
2022/06/28 00:16:55;;;;;;;5.17;3.17;;;;;;;18.91;82.60;98416.72;1817597;79;20878;-59
2022/06/28 00:19:21;;;;;;;3.42;2.90;;;;;;;18.89;82.69;98417.62;1817504;79;20945;-59
2022/06/28 00:21:48;;;;;;;6.28;3.20;;;;;;;18.90;82.70;98419.22;1817588;79;21464;-58
2022/06/28 00:24:14;;;;;;;3.25;2.95;;;;;;;18.91;82.79;98415.36;1817640;79;21417;-58
2022/06/28 00:26:42;;;;;;;4.12;3.10;;;;;;;18.90;82.89;98412.98;1817498;79;21124;-59
2022/06/28 00:29:08;;;;;;;5.10;3.08;;;;;;;18.89;82.94;98416.26;1817763;79;21368;-59
2022/06/28 00:31:35;;;;;;;3.87;3.15;;;;;;;18.91;82.95;98409.93;1817473;79;20835;-60
2022/06/28 00:34:04;;;;;;;5.80;2.80;;;;;;;18.88;82.97;98403.03;1817485;79;20890;-58
2022/06/28 00:36:31;;;;;;;7.12;3.10;;;;;;;18.84;83.10;98408.32;1817887;79;21008;-59
2022/06/28 00:38:57;;;;;;;4.80;3.10;;;;;;;18.83;83.23;98394.54;1817496;79;21245;-60
2022/06/28 00:41:25;;;;;;;4.22;3.52;;;;;;;18.87;83.42;98402.23;1817641;79;21429;-61
2022/06/28 00:43:51;;;;;;;4.25;3.00;;;;;;;18.95;83.29;98394.59;1817477;79;20957;-60
2022/06/28 00:46:19;;;;;;;4.87;3.10;;;;;;;19.05;83.19;98402.28;1817487;79;20890;-58
2022/06/28 00:48:46;;;;;;;3.55;3.02;;;;;;;19.09;83.00;98403.22;1817430;79;21005;-58
2022/06/28 00:51:13;;;;;;;4.25;3.15;;;;;;;19.11;82.70;98405.03;1816238;79;22016;-59
2022/06/28 00:53:39;;;;;;;4.87;2.83;;;;;;;19.15;82.48;98398.94;1808870;79;20958;-61
2022/06/28 00:56:06;;;;;;;7.08;3.20;;;;;;;19.18;82.24;98401.77;1809011;79;20985;-58
2022/06/28 00:58:33;;;;;;;6.87;3.37;;;;;;;19.23;81.96;98399.39;1808900;79;20957;-57
2022/06/28 01:01:00;;;;;;;3.80;3.20;;;;;;;19.32;81.64;98400.08;1808998;79;21008;-59
2022/06/28 01:03:27;;;;;;;3.65;3.00;;;;;;;19.42;81.19;98405.11;1808876;79;22033;-58
2022/06/28 01:05:55;;;;;;;5.20;3.17;;;;;;;19.51;80.58;98402.53;1808836;79;20835;-57
2022/06/28 01:08:23;;;;;;;7.40;3.30;;;;;;;19.62;80.05;98400.14;1808884;79;20966;-57
2022/06/28 01:10:50;;;;;;;3.47;3.17;;;;;;;19.71;79.46;98400.27;1808870;79;20969;-62
2022/06/28 01:13:17;;;;;;;4.95;3.05;;;;;;;19.78;78.90;98401.08;1809023;79;20878;-59
2022/06/28 01:15:44;;;;;;;5.17;3.17;;;;;;;19.85;78.43;98398.58;1809066;79;22303;-57
2022/06/28 01:18:12;;;;;;;3.77;3.10;;;;;;;19.92;78.00;98404.23;1809198;79;20923;-61
2022/06/28 01:20:46;;;;;;;7.03;3.10;;;;;;;19.98;77.72;98403.42;1787838;79;20935;-58
2022/06/28 01:23:20;;;;;;;5.67;2.80;;;;;;;20.03;77.44;98408.08;1809083;79;21393;-59
2022/06/28 01:25:48;;;;;;;5.28;3.47;;;;;;;20.08;77.11;98405.69;1809023;79;20878;-56
2022/06/28 01:28:16;;;;;;;6.92;3.30;;;;;;;20.10;76.86;98412.94;1809069;79;21671;-58
2022/06/28 01:30:43;;;;;;;5.37;3.30;;;;;;;20.10;76.71;98415.09;1808835;79;20969;-57
2022/06/28 01:33:23;;;;;;;7.33;3.25;;;;;;;20.10;76.58;98412.94;1807238;79;21449;-61
2022/06/28 01:35:50;;;;;;;4.55;3.02;;;;;;;20.09;76.41;98405.92;1808857;79;20922;-61
2022/06/28 01:38:17;;;;;;;6.58;3.15;;;;;;;20.11;76.34;98398.21;1809119;79;21437;-61
2022/06/28 01:40:46;;;;;;;5.80;3.40;;;;;;;20.12;76.26;98392.42;1808880;79;21109;-58
2022/06/28 01:43:13;;;;;;;4.65;3.30;;;;;;;20.13;76.20;98392.66;1786499;79;21539;-61
2022/06/28 01:45:42;;;;;;;6.83;3.33;;;;;;;20.14;76.08;98398.87;1808818;79;20891;-60
2022/06/28 01:48:09;;;;;;;5.08;3.65;;;;;;;20.14;76.20;98396.95;1808942;79;20886;-60
2022/06/28 01:50:41;;;;;;;4.10;3.30;;;;;;;20.09;76.22;98401.84;1786649;79;21053;-60
2022/06/28 01:53:08;;;;;;;4.55;2.90;;;;;;;20.05;76.22;98405.80;1808836;79;21892;-62
2022/06/28 01:55:45;;;;;;;6.95;2.90;;;;;;;20.03;76.37;98395.84;1807719;79;20963;-57
2022/06/28 01:58:13;;;;;;;5.55;3.08;;;;;;;20.00;76.56;98401.95;1806928;79;20871;-58
2022/06/28 02:00:41;;;;;;;4.70;3.80;;;;;;;20.01;76.49;98397.31;1809013;79;20968;-61
2022/06/28 02:03:08;;;;;;;4.40;3.45;;;;;;;20.02;76.45;98401.04;1809087;79;20959;-60
2022/06/28 02:05:37;;;;;;;4.00;3.50;;;;;;;20.05;76.34;98397.64;1809052;79;21111;-57
2022/06/28 02:08:05;;;;;;;6.03;3.80;;;;;;;20.07;76.27;98398.09;1808948;79;21445;-62
2022/06/28 02:10:37;;;;;;;5.00;3.60;;;;;;;20.07;76.19;98391.86;1807960;79;20879;-62
2022/06/28 02:13:04;;;;;;;4.22;3.40;;;;;;;20.06;76.16;98395.73;1809039;79;20966;-61
2022/06/28 02:15:31;;;;;;;3.90;2.92;;;;;;;20.04;76.21;98400.16;1809165;79;21052;-61
2022/06/28 02:17:59;;;;;;;5.03;3.12;;;;;;;20.04;76.27;98401.52;1809053;79;21114;-61
2022/06/28 02:20:26;;;;;;;5.17;3.50;;;;;;;20.04;76.39;98396.08;1808959;79;21409;-61
2022/06/28 02:22:52;;;;;;;7.53;3.50;;;;;;;20.04;76.43;98396.64;1809181;79;21010;-60
2022/06/28 02:25:19;;;;;;;5.05;3.70;;;;;;;20.03;76.49;98390.40;1809122;79;20894;-61
2022/06/28 02:27:47;;;;;;;6.40;4.00;;;;;;;20.02;76.56;98392.88;1809028;79;20917;-59
2022/06/28 02:30:14;;;;;;;5.80;3.70;;;;;;;20.02;76.63;98394.83;1809133;79;21106;-60
2022/06/28 02:32:40;;;;;;;3.98;3.50;;;;;;;20.00;76.71;98399.23;1809068;79;20961;-60
2022/06/28 02:40:37;;;;;;;3.80;3.40;;;;;;;19.99;77.03;98394.95;1809623;79;20990;-57
2022/06/28 02:43:04;;;;;;;4.53;3.70;;;;;;;20.01;77.09;98404.91;1809115;79;21204;-56
2022/06/28 02:45:32;;;;;;;5.50;3.52;;;;;;;20.01;77.11;98410.34;1809054;79;20954;-57
2022/06/28 02:47:59;;;;;;;7.58;4.05;;;;;;;20.05;77.14;98407.16;1808975;79;20867;-56
2022/06/28 02:50:25;;;;;;;4.53;4.10;;;;;;;20.07;77.09;98404.89;1809283;79;20847;-61
2022/06/28 02:52:52;;;;;;;5.42;3.55;;;;;;;20.08;77.14;98406.48;1809214;79;21461;-59
2022/06/28 02:55:19;;;;;;;6.60;3.62;;;;;;;20.12;77.13;98408.73;1809005;79;21301;-59
2022/06/28 02:57:46;;;;;;;5.25;3.42;;;;;;;20.14;77.20;98407.03;1808927;79;20830;-58
2022/06/28 03:00:17;;;;;;;4.87;3.70;;;;;;;20.17;77.23;98405.79;1808992;79;20906;-60
2022/06/28 03:02:45;;;;;;;4.28;3.87;;;;;;;20.21;77.24;98403.95;1808836;79;21437;-60
2022/06/28 03:05:15;;;;;;;5.92;3.77;;;;;;;20.25;77.19;98400.83;1809278;79;20894;-60
2022/06/28 03:07:42;;;;;;;4.15;3.67;;;;;;;20.28;77.23;98405.56;1809066;79;21720;-57
2022/06/28 03:10:10;;;;;;;5.20;3.67;;;;;;;20.31;77.18;98414.41;1808922;79;20961;-60
2022/06/28 03:12:38;;;;;;;5.92;3.80;;;;;;;20.35;77.09;98411.77;1809152;79;21369;-58
2022/06/28 03:15:06;;;;;;;4.90;3.62;;;;;;;20.38;77.03;98407.81;1809080;79;21022;-57
2022/06/28 03:17:34;;;;;;;4.40;3.67;;;;;;;20.41;77.14;98403.61;1785872;79;20898;-59
2022/06/28 03:20:00;;;;;;;9.55;4.15;;;;;;;20.41;77.32;98407.70;1809081;79;21054;-57
2022/06/28 03:22:28;;;;;;;4.10;3.60;;;;;;;20.42;77.52;98405.98;1808917;79;20847;-57
2022/06/28 03:24:56;;;;;;;4.62;3.75;;;;;;;20.45;77.71;98406.66;1808969;79;20843;-61
2022/06/28 03:27:22;;;;;;;5.20;3.45;;;;;;;20.51;77.65;98403.70;1808996;79;20969;-62
2022/06/28 03:29:51;;;;;;;4.95;3.90;;;;;;;20.55;77.84;98394.50;1809096;79;20950;-58
2022/06/28 03:32:19;;;;;;;5.62;3.75;;;;;;;20.57;77.97;98403.67;1808600;79;21733;-58
2022/06/28 03:34:46;;;;;;;5.35;3.70;;;;;;;20.59;77.89;98403.55;1809014;79;20874;-59
2022/06/28 03:37:15;;;;;;;7.17;4.00;;;;;;;20.54;77.78;98406.52;1808843;79;20882;-57
2022/06/28 03:39:44;;;;;;;4.92;3.90;;;;;;;20.45;77.94;98409.38;1807809;79;20930;-61
2022/06/28 03:42:10;;;;;;;4.12;3.72;;;;;;;20.41;78.17;98413.14;1808945;79;21017;-61
2022/06/28 03:44:38;;;;;;;4.12;3.65;;;;;;;20.34;78.40;98415.09;1786217;79;21173;-57
2022/06/28 03:47:06;;;;;;;5.50;3.92;;;;;;;20.26;78.68;98422.80;1809309;79;21405;-59
2022/06/28 03:49:51;;;;;;;;;;;;;;;20.20;79.18;98417.91;1811773;79;20906;-62
2022/06/28 03:52:28;;;;;;;6.53;3.67;;;;;;;20.18;79.55;98422.34;1789758;79;20070;-61
2022/06/28 03:55:08;;;;;;;5.12;3.80;;;;;;;20.18;79.80;98417.47;1795184;79;20890;-60
2022/06/28 03:57:39;;;;;;;6.35;4.15;;;;;;;20.22;79.94;98415.67;1816763;79;20938;-62
2022/06/28 04:00:08;;;;;;;4.62;3.80;;;;;;;20.25;80.14;98411.71;1817467;79;20870;-60
2022/06/28 04:02:37;;;;;;;6.85;4.35;;;;;;;20.28;80.29;98415.08;1817382;79;21380;-62
2022/06/28 04:05:04;;;;;;;7.70;4.12;;;;;;;20.32;80.49;98413.84;1817557;79;20945;-62
2022/06/28 04:07:31;;;;;;;6.17;4.00;;;;;;;20.35;80.52;98411.22;1817478;79;20961;-63
2022/06/28 04:09:59;;;;;;;8.83;4.58;;;;;;;20.41;80.62;98416.66;1817636;79;21110;-60
2022/06/28 04:12:26;;;;;;;7.33;4.03;;;;;;;20.48;80.72;98413.91;1817551;79;20913;-60
2022/06/28 04:14:54;;;;;;;6.08;4.08;;;;;;;20.52;80.77;98415.59;1817628;79;20950;-59
2022/06/28 04:17:21;;;;;;;4.62;3.85;;;;;;;20.57;80.73;98418.64;1817595;79;20945;-60
2022/06/28 04:20:07;;;;;;;4.92;3.83;;;;;;;20.62;80.51;98419.20;1817797;79;20929;-57
2022/06/28 04:22:36;;;;;;;6.85;3.80;;;;;;;20.69;79.89;98413.95;1816808;79;21110;-58
2022/06/28 04:25:03;;;;;;;7.55;4.12;;;;;;;20.81;79.19;98411.75;1817399;79;20886;-58
2022/06/28 04:27:31;;;;;;;7.37;3.85;;;;;;;20.91;78.66;98415.35;1816122;79;20964;-58
2022/06/28 04:29:59;;;;;;;5.37;4.05;;;;;;;21.01;78.19;98409.38;1817705;79;20970;-58
2022/06/28 04:32:28;;;;;;;5.92;4.25;;;;;;;21.09;77.89;98409.84;1814881;79;20994;-60
2022/06/28 04:34:54;;;;;;;7.10;4.40;;;;;;;21.16;77.59;98419.56;1817506;79;21238;-62
2022/06/28 04:37:21;;;;;;;6.30;4.05;;;;;;;21.22;77.31;98420.88;1817409;79;20965;-60
2022/06/28 04:39:48;;;;;;;9.50;4.37;;;;;;;21.28;77.04;98418.13;1817800;79;21409;-59
2022/06/28 04:42:17;;;;;;;6.90;4.35;;;;;;;21.34;76.81;98423.53;1816016;79;20851;-59
2022/06/28 04:44:44;;;;;;;4.95;3.62;;;;;;;21.40;76.71;98426.80;1817572;79;20971;-61
2022/06/28 04:47:12;;;;;;;8.53;4.35;;;;;;;21.46;76.51;98428.91;1817782;79;21721;-61
2022/06/28 04:49:39;;;;;;;6.83;4.45;;;;;;;21.55;76.32;98437.70;1817396;79;20894;-58
2022/06/28 04:52:08;;;;;;;12.82;5.30;;;;;;;21.63;75.98;98430.50;1817387;79;20882;-57
2022/06/28 04:54:36;;;;;;;7.20;4.33;;;;;;;21.70;75.69;98425.22;1817437;79;20954;-60
2022/06/28 04:57:22;;;;;;;11.00;4.92;;;;;;;21.76;75.31;98428.69;1751713;81;21515;-61
2022/06/28 04:59:54;;;;;;;5.50;4.10;;;;;;;21.81;74.82;98427.06;1749275;82;21118;-59
2022/06/28 05:02:25;;;;;;;7.70;4.08;;;;;;;21.90;74.38;98426.13;1777666;79;20901;-59
2022/06/28 05:04:53;;;;;;;7.03;4.35;;;;;;;21.97;73.90;98424.38;1817456;79;20956;-58
2022/06/28 05:07:21;;;;;;;4.72;3.50;;;;;;;22.06;73.26;98428.27;1816774;79;21417;-61
2022/06/28 05:09:48;;;;;;;8.65;4.47;;;;;;;22.16;73.16;98422.27;1817468;79;20965;-58
2022/06/28 05:12:15;;;;;;;5.70;4.15;;;;;;;22.27;72.73;98424.66;1817459;79;21169;-59
2022/06/28 05:14:42;;;;;;;4.65;3.60;;;;;;;22.36;72.04;98423.87;1817498;79;20914;-59
2022/06/28 05:17:10;;;;;;;8.15;3.70;;;;;;;22.43;71.43;98425.39;1817727;79;21424;-61
2022/06/28 05:19:38;;;;;;;5.17;3.70;;;;;;;22.50;71.03;98433.73;1817431;79;20847;-63
2022/06/28 05:22:04;;;;;;;4.45;3.30;;;;;;;22.55;70.34;98425.27;1817594;79;20985;-58
2022/06/28 05:24:33;;;;;;;7.42;3.77;;;;;;;22.60;69.88;98431.81;1817150;79;21256;-61
2022/06/28 05:27:02;;;;;;;4.60;3.60;;;;;;;22.67;69.63;98438.82;1816106;79;20893;-60
2022/06/28 05:29:33;;;;;;;5.42;3.33;;;;;;;22.73;69.60;98436.00;1816450;79;20905;-61
2022/06/28 05:31:59;;;;;;;6.00;3.17;;;;;;;22.80;69.34;98436.15;1817546;79;20858;-60
2022/06/28 05:34:26;;;;;;;6.30;3.40;;;;;;;22.86;68.28;98436.09;1817784;79;21448;-59
2022/06/28 05:36:52;;;;;;;5.22;3.35;;;;;;;22.91;67.81;98441.84;1810482;78;21467;-57
2022/06/28 05:39:19;;;;;;;4.80;3.12;;;;;;;22.98;67.07;98444.14;1763454;80;20968;-63
2022/06/28 05:41:45;;;;;;;4.47;3.00;;;;;;;23.08;66.05;98446.27;1834225;76;20903;-60
2022/06/28 05:44:13;;;;;;;8.20;3.90;;;;;;;23.19;64.78;98442.96;1833841;77;20916;-59
2022/06/28 05:46:41;;;;;;;9.78;3.80;;;;;;;23.28;64.67;98439.42;1832283;77;36807;-61
2022/06/28 05:49:08;;;;;;;5.05;3.45;;;;;;;23.38;64.02;98441.59;1815264;77;21063;-57
2022/06/28 05:51:35;;;;;;;4.90;3.08;;;;;;;23.47;62.68;98436.68;1845673;77;20943;-62
2022/06/28 05:54:04;;;;;;;11.03;3.98;;;;;;;23.53;62.33;98437.97;1841938;77;20947;-57
2022/06/28 05:56:32;;;;;;;6.85;3.27;;;;;;;23.59;61.52;98433.20;1832359;77;20927;-61
2022/06/28 05:58:58;;;;;;;5.40;3.08;;;;;;;23.65;61.83;98430.36;1836700;77;21438;-61
2022/06/28 06:01:25;;;;;;;5.12;3.40;;;;;;;23.71;60.95;98433.59;1822820;77;21198;-64
2022/06/28 06:03:54;;;;;;;7.08;4.00;;;;;;;23.77;61.21;98436.22;1822855;77;20908;-65
2022/06/28 06:06:22;;;;;;;9.43;6.03;;;;;;;23.83;60.85;98446.48;1844302;77;21022;-61
2022/06/28 06:08:49;;;;;;;14.53;8.40;;;;;;;23.86;59.67;98440.85;1848084;77;20978;-57
2022/06/28 06:11:17;;;;;;;16.85;9.30;;;;;;;23.93;58.17;98448.41;1854783;77;20821;-58
2022/06/28 06:13:44;;;;;;;16.60;9.33;;;;;;;23.99;58.08;98445.56;1840181;77;21226;-58
2022/06/28 06:16:12;;;;;;;15.15;9.40;;;;;;;24.06;58.25;98451.97;1850189;77;21039;-63
2022/06/28 06:18:44;;;;;;;16.27;9.05;;;;;;;24.13;57.94;98447.17;1848366;77;20927;-60
2022/06/28 06:21:11;;;;;;;11.93;7.78;;;;;;;24.20;57.69;98445.91;1839111;77;20954;-58
2022/06/28 06:23:37;;;;;;;13.00;7.55;;;;;;;24.27;57.26;98441.34;1837581;77;21045;-60
2022/06/28 06:26:05;;;;;;;11.85;5.00;;;;;;;24.36;57.14;98450.64;1837385;77;22170;-61
2022/06/28 06:28:34;;;;;;;10.93;5.35;;;;;;;24.43;55.98;98443.33;1840274;77;20908;-58
2022/06/28 06:31:00;;;;;;;10.28;4.53;;;;;;;24.48;54.39;98438.11;1839006;77;21034;-62
2022/06/28 06:33:29;;;;;;;9.63;4.80;;;;;;;24.55;52.19;98438.77;1803014;77;21025;-57
2022/06/28 06:36:01;;;;;;;9.28;4.22;;;;;;;24.63;53.05;98442.62;1838919;77;21039;-58
2022/06/28 06:38:28;;;;;;;6.58;3.47;;;;;;;24.72;53.42;98440.97;1836199;77;21110;-58
2022/06/28 06:40:59;;;;;;;6.25;2.95;;;;;;;24.80;53.22;98439.94;1841905;77;21053;-58
2022/06/28 06:43:28;;;;;;;2.95;2.15;;;;;;;24.87;54.06;98440.02;1802549;77;21035;-55
2022/06/28 06:45:57;;;;;;;4.58;2.10;;;;;;;24.95;53.02;98440.30;1814201;78;21445;-57
2022/06/28 06:48:23;;;;;;;3.52;2.58;;;;;;;25.03;51.87;98438.66;1809580;78;21461;-58
2022/06/28 06:50:50;;;;;;;7.15;1.90;;;;;;;25.11;52.50;98436.76;1806687;78;21100;-57
2022/06/28 06:53:19;;;;;;;2.42;1.80;;;;;;;25.19;52.13;98443.11;1809065;79;21486;-63
2022/06/28 06:55:47;;;;;;;3.62;2.05;;;;;;;25.34;51.60;98445.65;1786163;79;21082;-61
2022/06/28 06:58:14;;;;;;;4.85;2.20;;;;;;;25.34;51.60;98445.65;1772929;79;21583;-59
2022/06/28 07:00:41;;;;;;;4.08;2.00;;;;;;;25.40;50.89;98446.08;1830706;77;21308;-61
2022/06/28 07:03:08;;;;;;;4.03;2.20;;;;;;;25.49;51.70;98446.01;1829741;77;21195;-68
2022/06/28 07:05:38;;;;;;;4.90;2.05;;;;;;;25.55;50.74;98440.98;1823336;77;20983;-58
2022/06/28 07:08:07;;;;;;;3.12;2.08;;;;;;;25.62;50.91;98443.21;1821172;77;20996;-59
2022/06/28 07:10:35;;;;;;;2.37;1.90;;;;;;;25.67;51.61;98445.58;1835620;77;21029;-62
2022/06/28 07:13:02;;;;;;;3.98;1.92;;;;;;;25.76;51.52;98445.28;1804683;77;21460;-60
2022/06/28 07:15:31;;;;;;;5.28;2.17;;;;;;;25.84;50.88;98438.67;1822622;77;21202;-57
2022/06/28 07:17:58;;;;;;;3.58;2.08;;;;;;;25.94;50.90;98449.53;1824989;77;21093;-60
2022/06/28 07:20:24;;;;;;;4.85;2.25;;;;;;;26.11;51.43;98446.17;1816463;77;21083;-59
2022/06/28 07:22:52;;;;;;;3.75;2.30;;;;;;;26.11;51.43;98446.17;1837466;77;20994;-66
2022/06/28 07:25:19;;;;;;;6.20;2.90;;;;;;;26.18;51.46;98447.59;1825118;77;21430;-58
2022/06/28 07:27:46;;;;;;;5.15;2.25;;;;;;;26.24;51.33;98444.10;1837614;77;21181;-60
2022/06/28 07:30:13;;;;;;;5.50;2.40;;;;;;;26.31;50.71;98444.73;1847602;77;21035;-59
2022/06/28 07:32:39;;;;;;;3.15;2.15;;;;;;;26.37;49.59;98448.70;1844455;77;21038;-60
2022/06/28 07:35:08;;;;;;;3.72;2.20;;;;;;;26.43;49.53;98447.16;1811128;77;21161;-60
2022/06/28 07:37:37;;;;;;;2.70;2.50;;;;;;;26.51;48.76;98450.74;1824264;77;21087;-60
2022/06/28 07:40:06;;;;;;;3.20;2.45;;;;;;;26.57;49.13;98455.48;1821352;77;21112;-60
2022/06/28 07:42:50;;;;;;;3.67;2.30;;;;;;;26.64;49.58;98447.28;1777566;80;21477;-60
2022/06/28 07:45:21;;;;;;;3.72;2.42;;;;;;;26.71;48.61;98441.81;1812486;77;21512;-57
2022/06/28 07:47:49;;;;;;;2.72;2.20;;;;;;;26.79;48.29;98446.22;1832969;77;21038;-58
2022/06/28 09:01:50;;;;;;;4.15;2.37;;;;;;;28.76;42.38;98411.76;1797748;76;20922;-63
2022/06/28 09:04:16;;;;;;;3.40;2.50;;;;;;;28.85;43.45;98410.73;1823691;78;20901;-64
2022/06/28 09:06:43;;;;;;;4.08;2.12;;;;;;;28.92;42.62;98417.59;1809260;78;21427;-62
2022/06/28 09:09:10;;;;;;;4.53;2.60;;;;;;;28.99;42.88;98418.94;1771201;81;21429;-61
2022/06/28 09:11:41;;;;;;;3.35;2.20;;;;;;;29.05;43.59;98405.70;1782292;79;21281;-63
2022/06/28 09:14:30;;;;;;;4.12;2.30;;;;;;;29.12;42.84;98409.00;1803068;78;20881;-63
2022/06/28 09:16:58;;;;;;;4.28;2.30;;;;;;;29.11;43.48;98405.45;1796656;79;21007;-61
2022/06/28 09:19:35;;;;;;;5.33;2.50;;;;;;;29.01;43.18;98415.17;1798513;79;21516;-62
2022/06/28 09:22:03;;;;;;;3.40;2.40;;;;;;;28.87;43.42;98409.73;1800789;79;21061;-63
2022/06/28 09:24:31;;;;;;;4.42;2.55;;;;;;;28.71;43.72;98406.66;1788306;79;21502;-62
2022/06/28 09:27:04;;;;;;;5.58;2.22;;;;;;;28.50;44.27;98417.72;1806463;79;20901;-63
2022/06/28 09:29:49;;;;;;;7.87;2.90;;;;;;;28.38;44.50;98415.56;1805880;78;21532;-61
2022/06/28 09:32:16;;;;;;;3.17;2.30;;;;;;;28.34;44.75;98410.66;1802121;78;20869;-61
2022/06/28 09:35:09;;;;;;;4.97;2.30;;;;;;;28.40;45.98;98406.34;1743751;80;20996;-62
2022/06/28 09:37:56;;;;;;;3.50;2.33;;;;;;;28.55;45.36;98402.16;1795650;79;21120;-62
2022/06/28 09:40:26;;;;;;;4.45;2.20;;;;;;;28.75;44.74;98403.28;1782903;79;21041;-60
2022/06/28 09:43:12;;;;;;;5.45;2.45;;;;;;;28.87;44.51;98405.59;1809436;79;20873;-62
2022/06/28 09:45:41;;;;;;;4.30;2.15;;;;;;;28.96;45.04;98405.94;1810131;79;20944;-60
2022/06/28 09:48:08;;;;;;;7.10;2.40;;;;;;;29.06;43.98;98407.87;1807987;79;20967;-62
2022/06/28 09:50:36;;;;;;;6.55;2.85;;;;;;;29.10;43.10;98412.77;1806666;78;21123;-62
2022/06/28 09:53:04;;;;;;;4.70;2.60;;;;;;;29.14;43.47;98410.76;1802594;79;20917;-62
2022/06/28 09:55:32;;;;;;;4.00;2.42;;;;;;;29.25;43.23;98411.53;1806346;78;20951;-63
2022/06/28 09:58:00;;;;;;;5.47;2.45;;;;;;;29.42;43.67;98410.61;1790509;79;20903;-62
2022/06/28 10:00:27;;;;;;;7.92;2.30;;;;;;;29.57;42.04;98407.16;1809681;78;20967;-63
2022/06/28 10:02:56;;;;;;;3.35;2.20;;;;;;;29.67;40.90;98400.20;1821956;78;21118;-62
2022/06/28 10:05:23;;;;;;;4.42;1.98;;;;;;;29.70;40.34;98409.02;1810993;78;20925;-62
2022/06/28 10:07:50;;;;;;;4.00;2.42;;;;;;;29.73;40.75;98412.36;1814247;78;20933;-62
2022/06/28 10:10:16;;;;;;;5.37;2.40;;;;;;;29.68;41.74;98414.76;1818498;78;20944;-64
2022/06/28 10:15:34;;;;;;;;;;;;;;;29.69;42.11;98410.23;1817445;78;21655;-62
2022/06/28 10:18:15;;;;;;;2.27;2.05;;;;;;;29.66;42.12;98401.37;1824287;78;20113;-62
2022/06/28 10:20:45;;;;;;;3.42;2.20;;;;;;;29.63;41.36;98404.94;1788024;79;20917;-63
2022/06/28 10:23:43;;;;;;;4.92;2.40;;;;;;;29.69;41.97;98397.81;1808134;79;20884;-63
2022/06/28 10:26:19;;;;;;;5.62;2.60;;;;;;;29.79;42.03;98404.47;1808642;78;20964;-63
2022/06/28 10:29:04;;;;;;;4.22;2.40;;;;;;;29.88;41.77;98403.98;1822834;78;21122;-63
2022/06/28 10:31:42;;;;;;;4.70;2.30;;;;;;;29.87;41.41;98392.16;1782789;78;20925;-63
2022/06/28 10:34:13;;;;;;;3.17;2.33;;;;;;;29.86;41.92;98389.22;1810476;78;20975;-62
2022/06/28 10:36:52;;;;;;;4.25;2.20;;;;;;;29.92;42.02;98397.83;1801165;78;20968;-62
2022/06/28 10:42:07;;;;;;;4.40;2.40;;;;;;;30.06;40.98;98389.41;1783436;80;21075;-63
2022/06/28 10:44:41;;;;;;;7.72;2.42;;;;;;;30.10;42.39;98384.04;1789074;80;20930;-62
2022/06/28 10:47:12;;;;;;;3.33;2.10;;;;;;;30.08;41.52;98380.11;1824558;78;21006;-61
2022/06/28 10:49:54;;;;;;;13.28;2.35;;;;;;;30.02;41.55;98379.01;1822336;78;20964;-62
2022/06/28 10:52:35;;;;;;;3.10;2.00;;;;;;;30.03;41.30;98374.44;1788819;79;21020;-61
2022/06/28 10:55:10;;;;;;;3.67;2.42;;;;;;;30.11;41.52;98369.64;1791476;80;21089;-62
2022/06/28 10:57:41;;;;;;;4.40;2.10;;;;;;;30.23;40.55;98370.50;1785407;78;21388;-63
2022/06/28 11:00:10;;;;;;;3.12;2.37;;;;;;;30.28;39.32;98375.58;1825747;78;20896;-63
2022/06/28 11:02:57;;;;;;;5.40;2.00;;;;;;;30.29;39.37;98364.11;1820598;78;20975;-61
2022/06/28 11:05:45;;;;;;;3.55;2.10;;;;;;;30.33;39.80;98364.91;1825394;78;20919;-62
2022/06/28 11:08:13;;;;;;;5.05;2.20;;;;;;;30.42;40.26;98365.19;1798124;79;21202;-59
2022/06/28 11:10:45;;;;;;;2.70;1.90;;;;;;;30.52;40.35;98359.95;1797077;79;20871;-64
2022/06/28 11:13:21;;;;;;;5.40;1.95;;;;;;;30.52;39.02;98362.12;1789613;79;21481;-62
2022/06/28 11:15:48;;;;;;;4.12;2.30;;;;;;;30.44;39.38;98364.77;1821294;78;20916;-60
2022/06/28 11:18:18;;;;;;;4.45;1.70;;;;;;;30.38;40.14;98366.42;1812777;78;20917;-60
2022/06/28 11:20:45;;;;;;;4.30;2.15;;;;;;;30.42;40.44;98369.92;1813254;79;21114;-60
2022/06/28 11:23:30;;;;;;;2.90;2.12;;;;;;;30.48;40.83;98363.36;1801720;78;21427;-61
2022/06/28 11:29:01;;;;;;;3.50;1.90;;;;;;;30.71;39.83;98357.34;1791746;79;20980;-61
2022/06/28 11:31:40;;;;;;;2.70;1.90;;;;;;;30.87;39.10;98361.66;1791806;80;21019;-64
2022/06/28 11:34:07;;;;;;;3.30;1.90;;;;;;;31.07;37.15;98352.91;1773251;79;21182;-62
2022/06/28 11:36:34;;;;;;;3.80;1.62;;;;;;;31.25;37.11;98354.63;1797857;78;20974;-65
2022/06/28 11:39:04;;;;;;;2.87;1.80;;;;;;;31.36;36.99;98359.39;1743001;79;21447;-62
2022/06/28 11:41:31;;;;;;;4.40;2.20;;;;;;;31.46;36.89;98351.56;1781934;78;21108;-62
2022/06/28 11:43:59;;;;;;;2.60;1.80;;;;;;;31.61;37.07;98348.13;1790120;78;21089;-64
2022/06/28 11:46:27;;;;;;;3.40;2.00;;;;;;;31.76;36.55;98352.23;1780484;78;21930;-64
2022/06/28 11:48:54;;;;;;;3.80;2.08;;;;;;;31.79;37.12;98352.00;1776449;79;20972;-63
2022/06/28 11:51:30;;;;;;;2.77;1.90;;;;;;;31.92;37.49;98350.77;1790825;80;21157;-64
2022/06/28 11:53:58;;;;;;;2.05;1.85;;;;;;;32.14;36.96;98340.90;1769037;80;21540;-60
2022/06/28 11:56:26;;;;;;;2.85;1.95;;;;;;;32.36;36.44;98342.06;1790843;80;20981;-59
2022/06/28 11:58:52;;;;;;;5.58;2.08;;;;;;;32.58;36.63;98342.41;1779101;79;21737;-59
2022/06/28 12:01:26;;;;;;;4.85;2.08;;;;;;;32.75;35.91;98335.72;1812356;77;20927;-61
2022/06/28 12:03:58;;;;;;;2.52;1.67;;;;;;;32.87;36.77;98332.29;1811270;79;20963;-59
2022/06/28 12:06:30;;;;;;;2.27;1.90;;;;;;;33.11;36.43;98333.76;1803713;78;21039;-59
2022/06/28 12:09:01;;;;;;;4.15;2.17;;;;;;;33.31;35.04;98337.23;1794726;78;21068;-60
2022/06/28 12:11:36;;;;;;;3.45;1.85;;;;;;;33.36;34.52;98337.32;1795116;78;21542;-59
2022/06/28 12:14:08;;;;;;;4.92;1.87;;;;;;;33.43;34.92;98329.61;1789063;78;21060;-61
2022/06/28 12:16:44;;;;;;;3.50;1.95;;;;;;;33.51;34.58;98334.38;1793058;78;21010;-60
2022/06/28 12:19:20;;;;;;;4.25;2.00;;;;;;;33.47;34.82;98334.45;1794358;79;20980;-59
2022/06/28 12:22:03;;;;;;;5.47;2.12;;;;;;;33.51;33.88;98324.06;1809763;78;21082;-60
2022/06/28 12:24:52;;;;;;;2.45;1.80;;;;;;;33.60;34.61;98331.20;1805068;78;21072;-62
2022/06/28 12:27:25;;;;;;;2.98;2.02;;;;;;;33.67;33.87;98329.63;1805417;79;21530;-62
2022/06/28 12:29:52;;;;;;;4.12;2.10;;;;;;;33.79;33.54;98327.35;1810269;79;20943;-60
2022/06/28 12:32:19;;;;;;;2.40;1.75;;;;;;;33.83;33.82;98326.05;1809939;79;21096;-62
2022/06/28 12:34:45;;;;;;;3.87;2.20;;;;;;;33.84;32.91;98322.66;1810157;79;21063;-60
2022/06/28 12:37:12;;;;;;;3.10;1.80;;;;;;;33.72;33.93;98319.99;1810104;79;21110;-61
2022/06/28 12:39:39;;;;;;;4.50;1.70;;;;;;;33.82;33.83;98318.16;1810021;79;20999;-60
2022/06/28 12:42:07;;;;;;;5.90;1.77;;;;;;;33.72;33.48;98316.61;1810990;79;21059;-62
2022/06/28 12:44:34;;;;;;;2.72;1.70;;;;;;;33.46;33.64;98321.81;1810896;79;21102;-62
2022/06/28 12:47:01;;;;;;;3.72;1.77;;;;;;;33.37;33.77;98313.31;1811611;79;21011;-61
2022/06/28 12:49:28;;;;;;;3.92;1.82;;;;;;;33.44;33.02;98315.13;1807724;79;21106;-60
2022/06/28 12:51:54;;;;;;;5.33;1.80;;;;;;;33.58;33.41;98310.03;1796093;79;21443;-59
2022/06/28 12:54:21;;;;;;;3.65;1.75;;;;;;;33.86;33.50;98299.39;1798754;79;20948;-62
2022/06/28 12:56:47;;;;;;;4.28;1.82;;;;;;;34.13;32.71;98298.49;1786910;79;20977;-62
2022/06/28 12:59:14;;;;;;;3.83;1.85;;;;;;;34.36;31.95;98294.80;1785144;80;20985;-61
2022/06/28 13:01:40;;;;;;;3.45;1.85;;;;;;;34.48;31.69;98298.87;1788180;79;21663;-60
2022/06/28 13:04:08;;;;;;;2.65;1.80;;;;;;;34.66;32.22;98299.14;1804943;79;20849;-60
2022/06/28 13:06:35;;;;;;;3.27;1.82;;;;;;;34.83;31.50;98296.44;1804903;79;20864;-60
2022/06/28 13:09:02;;;;;;;2.92;1.65;;;;;;;34.86;32.42;98295.53;1742442;82;21019;-61
2022/06/28 13:11:30;;;;;;;3.72;1.50;;;;;;;35.02;32.83;98288.48;1837673;76;20895;-60
2022/06/28 13:13:56;;;;;;;2.70;1.45;;;;;;;35.21;31.88;98292.89;1833898;77;21222;-61